Time;durP1;ratioP1;P1;durP2;ratioP2;P2;SDS_P1;SDS_P2;PMS_P1;PMS_P2;Temp;Humidity;BMP_temperature;BMP_pressure;BME280_temperature;BME280_humidity;BME280_pressure;Samples;Min_cycle;Max_cycle;Signal;HPM_P1;HPM_P2
2023/01/11 00:01:56;;;;;;;13.73;3.53;;;;;;;5.98;79.92;98231.44;5346428;26;20294;-82
2023/01/11 00:04:28;;;;;;;9.18;3.22;;;;;;;6.26;77.01;98235.06;5346563;26;20063;-82
2023/01/11 00:06:56;;;;;;;9.32;3.33;;;;;;;6.04;77.88;98221.06;5346575;26;20105;-82
2023/01/11 00:09:23;;;;;;;8.80;3.10;;;;;;;6.03;77.91;98238.13;5326906;26;20076;-82
2023/01/11 00:11:50;;;;;;;7.95;2.92;;;;;;;6.14;77.61;98239.63;5346171;26;20079;-82
2023/01/11 00:14:17;;;;;;;;;;;;;;;6.07;76.95;98233.81;5346784;26;20122;-82
2023/01/11 00:16:44;;;;;;;10.40;3.17;;;;;;;6.45;73.74;98230.38;5346590;26;19957;-82
2023/01/11 00:19:11;;;;;;;9.35;2.35;;;;;;;6.26;74.83;98229.09;5346364;26;20135;-83
2023/01/11 00:21:38;;;;;;;7.45;2.60;;;;;;;6.36;73.54;98222.88;5346252;26;20354;-82
2023/01/11 00:24:05;;;;;;;7.55;2.60;;;;;;;6.14;73.61;98230.22;5346554;26;20056;-82
2023/01/11 00:26:32;;;;;;;7.32;2.22;;;;;;;6.38;72.26;98229.69;5346429;26;20361;-82
2023/01/11 00:28:59;;;;;;;;;;;;;;;6.27;72.48;98221.41;5346777;26;20061;-82
2023/01/11 00:31:25;;;;;;;7.93;2.40;;;;;;;6.52;71.62;98237.06;5346282;26;20314;-82
2023/01/11 00:33:52;;;;;;;7.47;2.30;;;;;;;6.25;71.70;98230.81;5346484;26;20055;-82
2023/01/11 00:36:20;;;;;;;;;;;;;;;5.69;72.88;98229.44;5346674;26;20055;-82
2023/01/11 00:38:50;;;;;;;5.32;2.10;;;;;;;6.42;70.74;98237.31;5346401;26;20002;-82
2023/01/11 00:49:35;;;;;;;7.03;1.98;;;;;;;6.53;67.53;98254.13;5346356;26;20071;-83
2023/01/11 00:52:07;;;;;;;6.68;2.12;;;;;;;6.58;65.54;98241.19;5345938;26;20382;-82
2023/01/11 00:54:35;;;;;;;5.25;1.77;;;;;;;5.77;68.64;98225.03;5346435;26;20059;-82
2023/01/11 00:57:03;;;;;;;5.80;2.28;;;;;;;6.01;68.38;98245.03;5345979;26;20407;-82
2023/01/11 00:59:29;;;;;;;8.52;2.45;;;;;;;5.90;68.24;98240.97;5346224;26;20068;-82
2023/01/11 01:01:56;;;;;;;;;;;;;;;6.85;64.79;98252.50;5346489;26;20095;-82
2023/01/11 01:04:23;;;;;;;5.50;2.35;;;;;;;7.41;62.22;98263.03;5346241;26;19959;-82
2023/01/11 01:06:50;;;;;;;5.65;2.25;;;;;;;6.57;64.89;98234.38;5346235;26;20110;-82
2023/01/11 01:09:17;;;;;;;7.07;2.67;;;;;;;6.59;64.46;98237.72;5346280;26;20061;-82
2023/01/11 01:11:44;;;;;;;6.62;2.35;;;;;;;6.30;65.32;98251.25;5345997;26;20458;-82
2023/01/11 01:14:30;;;;;;;8.70;2.40;;;;;;;6.47;64.64;98253.41;5346295;26;20060;-82
2023/01/11 01:17:07;;;;;;;6.95;2.35;;;;;;;6.27;65.12;98251.28;5346265;26;20136;-82
2023/01/11 01:19:36;;;;;;;4.20;2.08;;;;;;;6.47;64.37;98250.84;5346054;26;20060;-83
2023/01/11 01:22:03;;;;;;;7.90;2.15;;;;;;;6.45;63.78;98248.31;5346151;26;20061;-82
2023/01/11 01:24:30;;;;;;;11.82;2.40;;;;;;;6.43;64.59;98251.78;5346173;26;20106;-82
2023/01/11 01:26:57;;;;;;;6.10;2.10;;;;;;;6.44;64.64;98249.19;5346101;26;20048;-82
2023/01/11 01:29:24;;;;;;;8.38;2.12;;;;;;;6.34;64.63;98252.84;5345993;26;20122;-82
2023/01/11 01:31:51;;;;;;;6.07;1.83;;;;;;;6.31;65.11;98263.16;5345698;26;20109;-82
2023/01/11 01:34:18;;;;;;;5.35;1.80;;;;;;;5.91;66.60;98264.00;5346217;26;20082;-82
2023/01/11 01:36:45;;;;;;;;;;;;;;;5.93;66.45;98259.69;5346398;26;20101;-82
2023/01/11 01:39:12;;;;;;;5.95;1.85;;;;;;;5.89;66.48;98252.94;5346086;26;19967;-82
2023/01/11 01:41:39;;;;;;;9.43;2.50;;;;;;;6.15;66.26;98265.22;5345766;26;20064;-82
2023/01/11 01:44:43;;;;;;;5.72;1.80;;;;;;;6.19;65.68;98260.88;5346109;26;20102;-82
2023/01/11 01:47:10;;;;;;;7.87;2.30;;;;;;;6.14;66.71;98268.66;5345909;26;20098;-82
2023/01/11 01:49:37;;;;;;;8.52;2.10;;;;;;;6.10;65.74;98264.47;5345891;26;20079;-82
2023/01/11 01:52:04;;;;;;;5.90;1.83;;;;;;;6.81;63.78;98263.72;5345808;26;20059;-82
2023/01/11 01:54:34;;;;;;;6.07;2.28;;;;;;;5.83;66.67;98260.72;5345969;26;20053;-82
2023/01/11 01:57:10;;;;;;;6.80;2.08;;;;;;;5.70;67.78;98267.81;5326022;26;20045;-82
2023/01/11 01:59:37;;;;;;;6.30;2.10;;;;;;;6.01;66.29;98269.78;5345869;26;20062;-82
2023/01/11 02:02:03;;;;;;;;;;;;;;;6.08;66.67;98277.31;5346417;26;20075;-82
2023/01/11 02:04:42;;;;;;;6.37;1.90;;;;;;;6.61;64.09;98271.87;5346800;26;19970;-82
2023/01/11 02:07:28;;;;;;;6.28;1.98;;;;;;;6.39;64.76;98279.22;5346993;26;20481;-82
2023/01/11 02:10:14;;;;;;;5.53;2.30;;;;;;;6.68;63.66;98276.81;5327079;26;20075;-83
2023/01/11 02:13:07;;;;;;;7.07;1.85;;;;;;;7.02;61.95;98264.91;5327242;26;20411;-82
2023/01/11 02:15:35;;;;;;;5.93;2.10;;;;;;;6.44;64.49;98263.72;5346986;26;20059;-82
2023/01/11 02:18:02;;;;;;;7.12;1.80;;;;;;;6.68;63.70;98269.13;5346905;26;20185;-82
2023/01/11 02:20:50;;;;;;;9.07;2.25;;;;;;;6.16;64.35;98259.22;5346446;26;20182;-82
2023/01/11 02:23:35;;;;;;;5.20;1.92;;;;;;;6.59;63.50;98261.69;5327162;26;20065;-82
2023/01/11 02:26:24;;;;;;;5.45;2.10;;;;;;;6.58;62.91;98264.25;5346928;26;20112;-82
2023/01/11 02:29:12;;;;;;;6.50;2.17;;;;;;;6.71;63.02;98265.66;5346783;26;20048;-83
2023/01/11 02:31:53;;;;;;;4.20;1.80;;;;;;;6.45;63.24;98261.13;5346506;26;20457;-83
2023/01/11 02:34:36;;;;;;;7.03;2.25;;;;;;;6.54;63.55;98266.06;5346853;26;20056;-83
2023/01/11 02:37:03;;;;;;;3.83;1.60;;;;;;;7.01;61.93;98264.06;5327422;26;20101;-82
2023/01/11 02:39:59;;;;;;;4.18;1.98;;;;;;;6.23;63.63;98259.94;5346622;26;20044;-82
2023/01/11 02:45:45;;;;;;;7.07;1.73;;;;;;;7.06;61.08;98269.94;5346894;26;20060;-82
2023/01/11 02:48:38;;;;;;;5.47;2.10;;;;;;;6.09;64.47;98262.78;5346708;26;20056;-82
2023/01/11 02:51:11;;;;;;;6.97;2.00;;;;;;;6.77;61.83;98273.19;5326834;26;20373;-83
2023/01/11 02:53:43;;;;;;;6.60;2.17;;;;;;;6.01;64.38;98245.03;5327069;26;20167;-82
2023/01/11 02:56:14;;;;;;;5.03;2.05;;;;;;;6.29;64.19;98254.69;5346723;26;20060;-82
2023/01/11 02:58:43;;;;;;;4.85;1.98;;;;;;;6.02;65.70;98246.69;5346664;26;20056;-82
2023/01/11 03:01:11;;;;;;;7.03;1.90;;;;;;;5.83;66.41;98242.81;5346378;26;20040;-83
2023/01/11 03:03:38;;;;;;;4.30;2.45;;;;;;;5.92;65.67;98252.91;5346757;26;20425;-82
2023/01/11 03:06:16;;;;;;;8.60;2.62;;;;;;;5.87;65.69;98252.12;5346732;26;20110;-82
2023/01/11 03:09:19;;;;;;;5.78;2.40;;;;;;;5.94;65.62;98248.56;5346747;26;20093;-82
2023/01/11 03:14:54;;;;;;;6.45;1.85;;;;;;;6.07;64.11;98267.12;5346342;26;20061;-82
2023/01/11 03:17:21;;;;;;;6.00;2.15;;;;;;;5.95;64.40;98273.31;5346728;26;20152;-82
2023/01/11 03:19:51;;;;;;;;;;;;;;;6.57;62.24;98265.97;5346640;26;20051;-82
2023/01/11 03:22:32;;;;;;;7.28;2.40;;;;;;;5.13;67.50;98257.81;5346522;26;19963;-83
2023/01/11 03:25:12;;;;;;;5.47;1.90;;;;;;;5.74;65.50;98261.78;5346683;26;20060;-82
2023/01/11 03:28:14;;;;;;;5.30;2.03;;;;;;;5.64;66.78;98249.19;5346607;26;20068;-82
2023/01/11 03:31:13;;;;;;;3.87;1.62;;;;;;;5.38;66.92;98263.31;5326684;26;20063;-82
2023/01/11 03:33:58;;;;;;;5.05;2.12;;;;;;;5.73;65.26;98257.50;5318267;26;20115;-82
2023/01/11 03:36:37;;;;;;;6.15;2.28;;;;;;;6.11;63.81;98255.06;5346692;26;20060;-82
2023/01/11 03:39:09;;;;;;;8.25;2.20;;;;;;;5.95;64.87;98260.50;5346605;26;20060;-82
2023/01/11 03:41:38;;;;;;;8.15;1.98;;;;;;;5.87;63.99;98256.41;5326498;26;20117;-83
2023/01/11 03:44:07;;;;;;;6.35;2.10;;;;;;;6.49;62.49;98261.94;5346695;26;20097;-82
2023/01/11 03:46:37;;;;;;;4.00;1.60;;;;;;;6.46;60.69;98255.13;5326865;26;20057;-82
2023/01/11 03:49:13;;;;;;;4.80;1.50;;;;;;;6.53;60.78;98263.53;5346633;26;20098;-82
2023/01/11 03:51:42;;;;;;;4.97;1.77;;;;;;;6.32;61.59;98259.72;5326602;26;20064;-83
2023/01/11 03:54:21;;;;;;;4.80;1.80;;;;;;;6.18;61.26;98246.38;5346584;26;20094;-82
2023/01/11 03:57:10;;;;;;;5.65;1.70;;;;;;;5.87;63.21;98251.28;5326623;26;20331;-83
2023/01/11 03:59:37;;;;;;;4.37;1.70;;;;;;;6.84;58.81;98246.53;5326778;26;20060;-82
2023/01/11 04:02:33;;;;;;;3.67;1.60;;;;;;;5.99;62.05;98249.34;5346450;26;20063;-82
2023/01/11 04:05:01;;;;;;;4.87;1.73;;;;;;;6.19;61.83;98260.88;5346308;26;20109;-83
2023/01/11 04:07:28;;;;;;;5.80;2.03;;;;;;;6.30;61.79;98264.06;5326623;26;20389;-83
2023/01/11 04:09:55;;;;;;;4.90;1.80;;;;;;;6.53;60.31;98264.38;5346450;26;20060;-83
2023/01/11 04:12:22;;;;;;;4.55;1.70;;;;;;;7.42;57.48;98263.00;5346307;26;20403;-83
2023/01/11 04:14:49;;;;;;;5.82;1.70;;;;;;;6.54;58.34;98244.69;5346447;26;20051;-82
2023/01/11 04:17:16;;;;;;;6.87;2.05;;;;;;;6.62;59.18;98268.44;5346472;26;20413;-82
2023/01/11 04:19:43;;;;;;;3.95;1.77;;;;;;;7.23;57.56;98256.66;5326532;26;20056;-83
2023/01/11 04:22:10;;;;;;;4.10;1.48;;;;;;;7.01;57.77;98260.66;5346325;26;20152;-83
2023/01/11 04:24:37;;;;;;;4.90;1.67;;;;;;;6.18;59.42;98256.63;5346315;26;20044;-82
2023/01/11 04:27:04;;;;;;;6.22;1.80;;;;;;;6.88;57.81;98265.25;5345977;26;20052;-83
2023/01/11 04:29:31;;;;;;;;;;;;;;;7.58;55.15;98278.00;5346708;26;20061;-83
2023/01/11 04:31:58;;;;;;;9.13;1.80;;;;;;;6.93;56.67;98282.22;5346324;26;19955;-83
2023/01/11 04:34:24;;;;;;;5.85;2.50;;;;;;;7.35;55.73;98287.16;5346379;26;20105;-83
2023/01/11 04:36:51;;;;;;;;;;;;;;;6.72;57.37;98295.56;5346746;26;20060;-83
2023/01/11 04:39:18;;;;;;;4.30;1.75;;;;;;;6.87;57.52;98291.78;5346535;26;20558;-83
2023/01/11 04:44:48;;;;;;;4.40;1.62;;;;;;;7.35;55.59;98300.00;5309009;26;20053;-83
2023/01/11 04:47:17;;;;;;;4.05;1.50;;;;;;;6.58;56.79;98307.84;5346386;26;20060;-83
2023/01/11 04:49:44;;;;;;;2.58;1.30;;;;;;;6.95;56.65;98318.94;5346245;26;20071;-83
2023/01/11 04:52:12;;;;;;;2.47;1.27;;;;;;;6.92;56.01;98323.31;5346257;26;20107;-83
2023/01/11 04:54:40;;;;;;;4.07;1.65;;;;;;;6.89;57.10;98325.91;5346331;26;20098;-83
2023/01/11 04:57:11;;;;;;;4.60;1.60;;;;;;;7.27;56.04;98329.28;5345655;26;20129;-82
2023/01/11 04:59:38;;;;;;;5.18;1.65;;;;;;;6.70;57.33;98328.09;5346206;26;20459;-83
2023/01/11 05:02:05;;;;;;;5.12;1.58;;;;;;;7.10;56.61;98343.38;5346081;26;20119;-83
2023/01/11 05:04:32;;;;;;;5.40;1.70;;;;;;;7.62;53.89;98339.50;5346188;26;20048;-82
2023/01/11 05:06:59;;;;;;;5.37;1.50;;;;;;;6.60;57.71;98342.00;5346231;26;20525;-82
2023/01/11 05:09:26;;;;;;;2.95;1.35;;;;;;;6.03;59.61;98340.59;5346304;26;20091;-82
2023/01/11 05:11:53;;;;;;;5.37;1.70;;;;;;;6.44;58.58;98326.09;5345924;26;20062;-82
2023/01/11 05:14:20;;;;;;;4.07;1.65;;;;;;;6.67;57.46;98321.28;5346095;26;20044;-82
2023/01/11 05:16:47;;;;;;;5.10;1.70;;;;;;;6.43;58.73;98321.84;5346211;26;20126;-82
2023/01/11 05:19:14;;;;;;;3.62;1.23;;;;;;;6.26;59.79;98326.47;5346154;26;20052;-82
2023/01/11 05:21:41;;;;;;;;;;;;;;;6.20;59.84;98321.50;5345963;26;20048;-82
2023/01/11 05:24:11;;;;;;;4.25;1.45;;;;;;;5.97;61.11;98317.69;5346270;26;19964;-82
2023/01/11 05:26:40;;;;;;;5.47;1.50;;;;;;;5.05;64.51;98320.19;5346108;26;20061;-82
2023/01/11 05:29:14;;;;;;;5.25;1.83;;;;;;;5.43;63.20;98304.19;5346235;26;20056;-82
2023/01/11 05:31:42;;;;;;;5.95;1.73;;;;;;;5.57;62.45;98303.94;5346110;26;20409;-82
2023/01/11 05:34:11;;;;;;;6.37;1.77;;;;;;;5.62;62.66;98294.44;5346017;26;20048;-82
2023/01/11 05:36:38;;;;;;;4.93;1.73;;;;;;;5.14;64.17;98282.50;5346175;26;20399;-82
2023/01/11 05:39:05;;;;;;;5.28;1.70;;;;;;;5.15;64.55;98291.88;5347053;26;20057;-82
2023/01/11 05:41:32;;;;;;;4.37;1.50;;;;;;;4.83;66.43;98291.56;5346546;26;20121;-82
2023/01/11 05:46:45;;;;;;;4.82;1.60;;;;;;;4.71;67.27;98284.94;5346943;26;20118;-82
2023/01/11 05:49:12;;;;;;;3.95;1.42;;;;;;;5.13;65.98;98280.81;5346913;26;20106;-82
2023/01/11 05:51:41;;;;;;;5.43;1.98;;;;;;;5.44;64.15;98286.25;5326880;26;20052;-82
2023/01/11 05:54:12;;;;;;;5.28;1.62;;;;;;;5.12;65.05;98278.31;5327382;26;20402;-82
2023/01/11 05:56:41;;;;;;;4.72;1.55;;;;;;;4.82;67.26;98275.38;5346677;26;20060;-82
2023/01/11 05:59:08;;;;;;;5.25;1.83;;;;;;;4.86;66.41;98265.94;5347038;26;20060;-82
2023/01/11 06:01:36;;;;;;;4.68;1.83;;;;;;;5.13;65.32;98267.19;5346443;26;20056;-82
2023/01/11 06:04:03;;;;;;;3.80;1.58;;;;;;;5.10;65.32;98246.75;5346896;26;20079;-82
2023/01/11 06:06:30;;;;;;;8.40;1.80;;;;;;;5.19;65.09;98251.72;5346887;26;20114;-82
2023/01/11 06:08:57;;;;;;;4.32;1.60;;;;;;;4.98;66.60;98252.94;5346936;26;20395;-82
2023/01/11 06:11:24;;;;;;;;;;;;;;;4.86;66.56;98251.44;5346946;26;20452;-82
2023/01/11 06:13:51;;;;;;;6.40;1.87;;;;;;;5.10;65.58;98242.50;5347051;26;19978;-82
2023/01/11 06:16:19;;;;;;;5.50;1.90;;;;;;;5.14;66.29;98254.38;5346872;26;20142;-82
2023/01/11 06:18:51;;;;;;;5.35;1.70;;;;;;;5.04;66.08;98254.56;5346981;26;20061;-82
2023/01/11 06:21:18;;;;;;;8.60;1.75;;;;;;;4.89;66.97;98263.31;5346488;26;20062;-82
2023/01/11 06:23:49;;;;;;;6.68;1.95;;;;;;;4.91;66.86;98251.38;5346794;26;20048;-82
2023/01/11 06:26:19;;;;;;;5.00;1.58;;;;;;;4.51;67.61;98239.22;5346963;26;20113;-82
2023/01/11 06:28:46;;;;;;;6.50;2.00;;;;;;;4.74;67.84;98254.19;5327141;26;20065;-82
2023/01/11 06:31:14;;;;;;;4.90;1.58;;;;;;;4.73;68.15;98257.63;5346624;26;20053;-82
2023/01/11 06:33:44;;;;;;;5.15;1.77;;;;;;;4.77;67.59;98258.41;5346841;26;20097;-82
2023/01/11 06:36:12;;;;;;;5.95;1.85;;;;;;;4.75;68.08;98257.59;5346658;26;20070;-82
2023/01/11 06:38:39;;;;;;;5.07;1.98;;;;;;;5.07;67.10;98247.66;5346775;26;20402;-83
2023/01/11 06:41:10;;;;;;;5.75;1.87;;;;;;;4.82;67.75;98234.47;5346497;26;20057;-82
2023/01/11 06:43:39;;;;;;;4.68;1.65;;;;;;;5.54;64.75;98240.84;5327518;26;20097;-82
2023/01/11 06:46:11;;;;;;;4.22;1.70;;;;;;;5.22;65.26;98239.75;5346777;26;20060;-82
2023/01/11 06:48:38;;;;;;;5.62;1.90;;;;;;;5.47;64.58;98258.03;5346472;26;20117;-84
2023/01/11 06:51:05;;;;;;;5.70;2.12;;;;;;;5.96;63.20;98257.09;5346326;26;20383;-81
2023/01/11 06:53:32;;;;;;;5.47;2.17;;;;;;;5.88;62.42;98250.41;5346622;26;20412;-81
2023/01/11 06:55:59;;;;;;;6.00;2.00;;;;;;;6.11;62.09;98253.34;5346692;26;20057;-82
2023/01/11 06:58:26;;;;;;;6.32;2.17;;;;;;;6.18;61.54;98257.47;5346634;26;20117;-82
2023/01/11 07:04:12;;;;;;;4.87;1.90;;;;;;;6.19;60.62;98261.72;5348717;26;20058;-83
2023/01/11 07:06:38;;;;;;;4.55;1.58;;;;;;;6.33;60.72;98272.50;5350040;26;20060;-80
2023/01/11 07:09:05;;;;;;;5.25;1.50;;;;;;;4.92;65.75;98259.03;5355162;26;20021;-79
2023/01/11 07:11:33;;;;;;;4.87;1.83;;;;;;;5.18;65.37;98256.00;5354276;26;20025;-80
2023/01/11 07:14:00;;;;;;;5.57;1.77;;;;;;;5.52;63.54;98256.22;5359366;26;20044;-78
2023/01/11 07:16:27;;;;;;;5.32;1.50;;;;;;;5.77;62.36;98254.03;5357013;26;20102;-79
2023/01/11 07:18:54;;;;;;;;;;;;;;;6.12;60.98;98262.72;5354111;26;20123;-80
2023/01/11 07:21:20;;;;;;;4.30;1.60;;;;;;;6.83;58.38;98272.22;5354929;26;19958;-80
2023/01/11 07:23:47;;;;;;;3.83;1.40;;;;;;;6.59;58.21;98282.19;5355300;26;20102;-80
2023/01/11 07:26:16;;;;;;;4.78;1.80;;;;;;;7.27;56.75;98291.63;5356120;26;20052;-80
2023/01/11 07:28:43;;;;;;;5.75;1.77;;;;;;;8.01;53.75;98285.34;5350302;26;20067;-80
2023/01/11 07:31:09;;;;;;;;;;;;;;;7.87;53.22;98297.72;5354823;26;20024;-79
2023/01/11 07:33:36;;;;;;;4.37;1.73;;;;;;;8.31;52.56;98292.19;5360633;26;19947;-80
2023/01/11 07:36:05;;;;;;;;;;;;;;;8.38;52.53;98300.56;5356583;26;20065;-83
2023/01/11 07:38:32;;;;;;;5.85;1.42;;;;;;;8.81;50.87;98292.38;5347012;26;20313;-84
2023/01/11 07:40:59;;;;;;;5.57;1.67;;;;;;;9.79;48.41;98305.38;5347131;26;20051;-83
2023/01/11 07:43:25;;;;;;;3.78;1.60;;;;;;;9.57;48.03;98310.47;5347617;26;20093;-83
2023/01/11 07:45:52;;;;;;;;;;;;;;;9.85;48.21;98317.19;5348870;26;20071;-83
2023/01/11 07:48:25;;;;;;;3.85;1.58;;;;;;;10.33;47.21;98316.34;5357056;26;19979;-82
2023/01/11 07:50:53;;;;;;;7.60;2.17;;;;;;;10.27;46.72;98324.31;5334880;26;20025;-83
2023/01/11 07:53:24;;;;;;;7.20;1.70;;;;;;;10.37;46.54;98335.97;5345171;26;20052;-82
2023/01/11 07:55:51;;;;;;;5.93;1.80;;;;;;;10.46;45.72;98339.94;5330424;26;20094;-83
2023/01/11 07:58:18;;;;;;;3.90;1.48;;;;;;;10.52;45.80;98350.03;5331040;26;20029;-83
2023/01/11 08:00:45;;;;;;;;;;;;;;;9.79;46.53;98351.78;5346806;26;20145;-82
2023/01/11 08:03:12;;;;;;;4.93;1.70;;;;;;;10.57;45.80;98354.13;5345444;26;19960;-84
2023/01/11 08:05:39;;;;;;;4.90;1.60;;;;;;;11.49;43.70;98369.41;5349299;26;20072;-83
2023/01/11 08:08:06;;;;;;;6.62;1.83;;;;;;;10.72;45.17;98373.34;5358986;26;20061;-82
2023/01/11 08:10:33;;;;;;;4.43;1.50;;;;;;;10.92;45.17;98378.56;5353137;26;20052;-84
2023/01/11 08:15:45;;;;;;;4.68;1.67;;;;;;;12.78;40.89;98375.00;5351396;26;20802;-84
2023/01/11 08:18:13;;;;;;;4.20;1.70;;;;;;;14.93;36.94;98373.62;5336546;26;20428;-84
2023/01/11 08:20:41;;;;;;;3.67;1.40;;;;;;;14.63;35.70;98363.97;5355599;26;20028;-83
2023/01/11 08:23:09;;;;;;;3.55;1.70;;;;;;;14.37;36.29;98372.31;5338510;26;20025;-84
2023/01/11 08:25:37;;;;;;;5.15;1.75;;;;;;;14.60;36.25;98369.34;5347681;26;20061;-83
2023/01/11 08:28:06;;;;;;;5.45;2.00;;;;;;;14.11;36.97;98355.50;5348402;26;20428;-83
2023/01/11 08:30:34;;;;;;;3.97;1.50;;;;;;;12.92;40.09;98357.06;5357895;26;20024;-83
2023/01/11 08:35:37;;;;;;;5.47;1.60;;;;;;;12.99;40.40;98349.84;5332647;26;20085;-84
2023/01/11 08:38:04;;;;;;;4.60;1.52;;;;;;;12.26;41.22;98351.47;5335169;27;20254;-84
2023/01/11 08:40:31;;;;;;;3.05;1.20;;;;;;;12.10;41.86;98343.53;5321165;26;20029;-83
2023/01/11 08:42:58;;;;;;;4.90;1.62;;;;;;;11.94;42.02;98358.06;5346464;26;20045;-83
2023/01/11 08:45:25;;;;;;;4.82;1.83;;;;;;;10.94;44.63;98348.38;5326542;26;20061;-82
2023/01/11 08:47:53;;;;;;;3.78;1.40;;;;;;;10.09;47.05;98356.72;5347642;26;20113;-83
2023/01/11 08:50:21;;;;;;;3.58;1.42;;;;;;;11.06;44.84;98353.94;5346328;26;20120;-82
2023/01/11 08:52:49;;;;;;;5.12;1.50;;;;;;;11.57;44.86;98362.16;5348684;26;20025;-81
2023/01/11 08:55:18;;;;;;;3.08;1.42;;;;;;;10.24;46.79;98357.97;5350830;26;20057;-81
2023/01/11 08:57:45;;;;;;;4.50;1.42;;;;;;;10.03;47.52;98365.53;5347820;26;20056;-81
2023/01/11 09:00:12;;;;;;;5.18;1.40;;;;;;;10.49;46.25;98371.63;5349141;26;20060;-82
2023/01/11 09:02:39;;;;;;;3.58;1.40;;;;;;;9.96;47.81;98365.78;5354477;26;20044;-82
2023/01/11 09:05:07;;;;;;;5.80;1.40;;;;;;;9.71;48.55;98364.06;5353732;26;20135;-82
2023/01/11 09:07:34;;;;;;;2.47;1.10;;;;;;;10.20;47.69;98361.50;5358767;26;20098;-82
2023/01/11 09:10:09;;;;;;;4.47;1.40;;;;;;;9.08;49.17;98359.31;5359109;26;20742;-82
2023/01/11 09:12:36;;;;;;;3.85;1.52;;;;;;;10.10;48.84;98368.72;5355709;26;20045;-82
2023/01/11 09:15:04;;;;;;;4.60;1.20;;;;;;;9.97;48.40;98368.31;5354424;26;20084;-82
2023/01/11 09:17:31;;;;;;;2.35;0.90;;;;;;;9.15;50.73;98368.53;5351822;26;20070;-82
2023/01/11 09:20:10;;;;;;;5.55;1.80;;;;;;;9.51;48.41;98369.06;5353424;26;20024;-81
2023/01/11 09:22:37;;;;;;;7.28;1.67;;;;;;;8.37;53.11;98379.44;5362080;26;20028;-81
2023/01/11 09:25:05;;;;;;;3.97;1.30;;;;;;;8.85;54.07;98384.03;5362546;26;20029;-83
2023/01/11 09:27:32;;;;;;;2.28;1.10;;;;;;;9.09;52.23;98377.28;5344033;26;20028;-82
2023/01/11 09:30:01;;;;;;;4.28;1.40;;;;;;;9.70;51.32;98383.00;5359282;26;20025;-82
2023/01/11 09:32:28;;;;;;;5.05;1.17;;;;;;;8.73;51.86;98378.41;5356598;26;20048;-83
2023/01/11 09:34:56;;;;;;;4.50;1.73;;;;;;;8.87;52.77;98379.66;5345745;26;20446;-84
2023/01/11 09:37:23;;;;;;;2.70;1.20;;;;;;;8.58;54.83;98366.84;5349985;26;20024;-83
2023/01/11 09:39:51;;;;;;;4.40;1.50;;;;;;;8.95;53.68;98361.44;5349502;26;20422;-83
2023/01/11 09:42:39;;;;;;;4.45;1.50;;;;;;;9.94;49.45;98359.84;5355766;26;20635;-84
2023/01/11 09:48:10;;;;;;;4.68;1.55;;;;;;;10.12;49.73;98366.94;5338181;26;19983;-83
2023/01/11 09:51:18;;;;;;;2.55;1.33;;;;;;;10.38;47.21;98353.13;5361685;26;20063;-83
2023/01/11 09:53:49;;;;;;;4.28;1.73;;;;;;;10.28;48.01;98356.94;5359538;26;20379;-83
2023/01/11 09:56:24;;;;;;;4.37;1.30;;;;;;;10.59;47.66;98357.47;5356194;26;20060;-81
2023/01/11 09:59:18;;;;;;;4.87;1.70;;;;;;;10.77;47.81;98352.53;5353743;26;20057;-83
2023/01/11 10:05:01;;;;;;;4.00;1.40;;;;;;;9.92;49.05;98339.28;5269655;27;20314;-82
2023/01/11 10:07:42;;;;;;;3.08;1.33;;;;;;;9.86;50.38;98336.91;5269678;27;20150;-83
2023/01/11 10:10:21;;;;;;;2.30;1.30;;;;;;;9.63;50.01;98336.88;5242748;27;20054;-83
2023/01/11 10:13:17;;;;;;;4.12;1.50;;;;;;;10.49;48.07;98335.50;5265010;27;20089;-84
2023/01/11 10:16:28;;;;;;;4.20;1.40;;;;;;;11.01;47.55;98343.81;5264955;27;20033;-79
2023/01/11 10:19:22;;;;;;;4.72;1.35;;;;;;;11.87;43.44;98346.28;5261604;27;20065;-82
2023/01/11 10:22:19;;;;;;;3.95;1.40;;;;;;;11.34;44.45;98330.44;5249318;27;20181;-84
2023/01/11 10:24:55;;;;;;;4.25;1.60;;;;;;;11.95;44.40;98323.53;5245081;27;20108;-83
2023/01/11 10:27:36;;;;;;;3.72;1.20;;;;;;;11.86;43.68;98322.19;5241884;27;20391;-83
2023/01/11 10:33:33;;;;;;;3.87;1.37;;;;;;;10.04;46.50;98323.38;5260875;27;20071;-83
2023/01/11 10:36:33;;;;;;;3.37;1.25;;;;;;;10.27;47.99;98326.88;5258810;27;20058;-82
2023/01/11 10:42:08;;;;;;;5.15;1.40;;;;;;;12.66;42.40;98334.97;5245938;27;20065;-83
2023/01/11 10:44:42;;;;;;;5.00;1.70;;;;;;;12.58;41.21;98324.13;5265579;27;20030;-83
2023/01/11 10:47:15;;;;;;;1.85;1.20;;;;;;;11.29;44.83;98325.47;5266878;27;20026;-83
2023/01/11 10:49:54;;;;;;;2.50;1.20;;;;;;;10.89;44.54;98332.22;5245472;27;20045;-83
2023/01/11 10:52:32;;;;;;;3.20;1.20;;;;;;;11.80;41.86;98329.34;5263710;27;20036;-82
2023/01/11 10:55:21;;;;;;;3.37;1.20;;;;;;;12.88;39.52;98321.88;5263060;27;20392;-83
2023/01/11 10:57:54;;;;;;;2.72;1.10;;;;;;;12.41;40.05;98317.13;5267761;27;20045;-83
2023/01/11 11:01:02;;;;;;;2.35;1.00;;;;;;;11.95;39.18;98300.28;5262639;27;20428;-82
2023/01/11 11:03:49;;;;;;;1.50;1.10;;;;;;;13.32;38.96;98301.59;5260376;27;20125;-83
2023/01/11 11:06:16;;;;;;;;;;;;;;;12.90;37.62;98301.91;5259216;27;20026;-84
2023/01/11 11:09:12;;;;;;;2.42;0.70;;;;;;;13.41;36.64;98304.66;5261265;27;20689;-83
2023/01/11 11:11:57;;;;;;;2.12;0.98;;;;;;;13.30;37.18;98297.41;5259273;27;20026;-83
2023/01/11 11:14:40;;;;;;;2.03;1.00;;;;;;;12.80;37.08;98285.13;5239305;27;20062;-82
2023/01/11 11:17:24;;;;;;;1.48;0.90;;;;;;;12.57;37.68;98285.37;5240085;27;20072;-82
2023/01/11 11:19:52;;;;;;;2.87;1.02;;;;;;;13.15;36.84;98286.00;5256800;27;20053;-82
2023/01/11 11:22:19;;;;;;;1.98;0.80;;;;;;;12.99;37.41;98285.09;5239426;27;20046;-82
2023/01/11 11:24:58;;;;;;;3.72;1.08;;;;;;;13.07;36.23;98284.69;5258568;27;20058;-82
2023/01/11 11:27:44;;;;;;;3.90;1.10;;;;;;;12.70;36.68;98281.31;5239854;27;20029;-82
2023/01/11 11:30:14;;;;;;;1.70;0.80;;;;;;;13.14;37.05;98280.91;5240019;27;20111;-83
2023/01/11 11:32:51;;;;;;;2.58;1.20;;;;;;;13.26;36.70;98290.69;5242878;27;20055;-82
2023/01/11 11:35:31;;;;;;;;;;;;;;;12.95;36.41;98275.78;5261396;27;20073;-85
2023/01/11 11:37:59;;;;;;;2.75;1.05;;;;;;;13.91;35.71;98281.28;5258721;27;20019;-83
2023/01/11 11:40:29;;;;;;;2.55;1.15;;;;;;;13.77;36.74;98279.44;5239016;27;20108;-83
2023/01/11 11:43:17;;;;;;;1.50;0.90;;;;;;;12.68;37.24;98272.78;5258392;27;20054;-82
2023/01/11 11:45:56;;;;;;;2.65;1.10;;;;;;;12.37;38.64;98279.37;5259690;27;20158;-83
2023/01/11 11:48:25;;;;;;;1.12;0.75;;;;;;;12.03;37.83;98271.50;5259090;27;20126;-82
2023/01/11 11:50:57;;;;;;;4.90;1.10;;;;;;;12.38;37.38;98268.13;5258585;27;20050;-84
2023/01/11 11:53:32;;;;;;;3.08;0.90;;;;;;;11.98;39.07;98271.69;5258656;27;20103;-84
2023/01/11 11:56:05;;;;;;;1.62;0.70;;;;;;;11.79;38.21;98269.06;5239401;27;20065;-84
2023/01/11 11:58:32;;;;;;;1.58;0.77;;;;;;;12.06;36.21;98266.16;5239433;27;20062;-84
2023/01/11 12:01:01;;;;;;;2.83;1.00;;;;;;;11.58;37.39;98269.97;5255651;27;20062;-84
2023/01/11 12:03:29;;;;;;;3.15;0.90;;;;;;;12.86;35.58;98252.91;5258399;27;20099;-83
2023/01/11 12:05:57;;;;;;;2.83;0.80;;;;;;;12.69;35.42;98259.75;5258451;27;20062;-84
2023/01/11 12:08:24;;;;;;;2.42;0.90;;;;;;;13.23;35.12;98255.41;5258753;27;20062;-83
2023/01/11 12:10:56;;;;;;;1.02;0.62;;;;;;;12.96;33.79;98247.19;5239051;27;20057;-84
2023/01/11 12:13:38;;;;;;;1.83;0.70;;;;;;;13.56;33.02;98252.00;5258479;27;20045;-84
2023/01/11 12:16:21;;;;;;;3.78;0.60;;;;;;;13.82;32.35;98251.50;5258339;27;20074;-84
2023/01/11 12:18:48;;;;;;;2.65;0.90;;;;;;;13.37;34.66;98254.69;5258571;27;20073;-84
2023/01/11 12:21:22;;;;;;;1.42;0.62;;;;;;;13.59;32.79;98255.28;5258068;27;20053;-85
2023/01/11 12:24:18;;;;;;;2.12;0.70;;;;;;;13.36;33.79;98253.03;5258361;27;20108;-84
2023/01/11 12:26:57;;;;;;;0.80;0.68;;;;;;;13.44;34.02;98252.66;5258469;27;20072;-84
2023/01/11 12:30:14;;;;;;;1.80;0.85;;;;;;;13.24;33.76;98248.47;5239430;27;20065;-85
2023/01/11 12:33:13;;;;;;;1.12;0.62;;;;;;;12.79;33.27;98239.44;5255229;27;20072;-85
2023/01/11 12:35:51;;;;;;;1.50;0.93;;;;;;;13.40;32.61;98244.19;5239329;27;20056;-84
2023/01/11 12:38:56;;;;;;;2.60;0.93;;;;;;;13.30;33.04;98246.41;5239410;27;20392;-85
2023/01/11 12:41:51;;;;;;;2.33;0.90;;;;;;;13.77;33.67;98247.47;5221784;27;20379;-85
2023/01/11 12:44:25;;;;;;;1.90;0.70;;;;;;;12.53;35.59;98255.37;5258141;27;20054;-85
2023/01/11 12:47:15;;;;;;;1.85;0.80;;;;;;;12.92;35.48;98266.41;5257734;27;20325;-85
2023/01/11 12:50:08;;;;;;;1.52;0.60;;;;;;;13.00;34.55;98264.28;5258428;27;20429;-84
2023/01/11 12:52:47;;;;;;;3.25;0.88;;;;;;;15.13;31.04;98266.81;5239119;27;20076;-84